Hollis, North Carolina
Current Conditions -  °F | °C
As of 8:55 AM on Monday 24 Nov 2014 (Local Time) from KFQD Reporting Station
Clear Clear  
Wind Chill: 60°   Ceiling: Unl
Heat Index: 60°   Visibility: 10mi
Dew Point: 56°   Wind: 8mph
Humidity: 85%   Direction: 200°SSW
Pressure: 29.78"   Gusts: 17mph
Location:  35.3839°N, 81.7531°W
Report Text: KFQD 241355Z AUTO 20007G15KT 10SM CLR 16/13 A2978 RMK AO2 T01580132
Loading
Personal Weather Stations






























Interactive Weather Map New forecast layout! Learn more

10-Day Weather Forecast

Advertisements
Track Severe Weather on mobile